METAR Data
IDs: Format: Raw Decoded Include TAF

Data at: 1356 UTC 10 Aug 2022

KCIC 101335Z AUTO 13007KT 10SM CLR 18/11 A3002 RMK AO1
KCIC 101315Z AUTO 16006KT 10SM CLR 18/12 A3001 RMK AO1
KCIC 101255Z AUTO 16008KT 10SM CLR 18/11 A3000 RMK AO1
KCIC 101235Z AUTO 13008KT 10SM CLR 18/10 A3000 RMK AO1
KCIC 101215Z AUTO 14011KT 10SM CLR 19/09 A2999 RMK AO1
KCIC 101155Z AUTO 15007KT 10SM CLR 19/09 A2998 RMK AO1
KCIC 101135Z AUTO 14010KT 10SM CLR 19/08 A2998 RMK AO1
KCIC 101115Z AUTO 15006KT 10SM CLR 20/08 A2997 RMK AO1
KCIC 101055Z AUTO 15008KT 10SM CLR 20/07 A2997 RMK AO1
KCIC 101035Z AUTO 13007KT 10SM CLR 20/08 A2997 RMK AO1
KCIC 101015Z AUTO 13010KT 10SM CLR 21/07 A2997 RMK AO1
KCIC 100955Z AUTO 13011KT 10SM CLR 21/07 A2997 RMK AO1
KCIC 100935Z AUTO 14008KT 10SM CLR 22/07 A2997 RMK AO1
KCIC 100915Z AUTO 13009KT 10SM CLR 22/07 A2997 RMK AO1
KCIC 100855Z AUTO 13011KT 10SM CLR 22/07 A2997 RMK AO1
KCIC 100835Z AUTO 14013KT 10SM CLR 22/07 A2996 RMK AO1
KCIC 100815Z AUTO 13015G19KT 10SM CLR 23/07 A2996 RMK AO1
KCIC 100755Z AUTO 14011KT 10SM CLR 23/07 A2996 RMK AO1
KCIC 100735Z AUTO 14013KT 10SM CLR 23/07 A2996 RMK AO1
KCIC 100715Z AUTO 14014KT 10SM CLR 24/07 A2995 RMK AO1
KCIC 100655Z AUTO 14015G19KT 10SM CLR 24/07 A2995 RMK AO1
KCIC 100635Z AUTO 14013KT 10SM CLR 25/07 A2995 RMK AO1
KCIC 100615Z AUTO 14015KT 10SM CLR 25/07 A2994 RMK AO1
KCIC 100555Z AUTO 14015G20KT 10SM CLR 26/08 A2993 RMK AO1
KCIC 100535Z AUTO 13018G24KT 10SM CLR 26/08 A2993 RMK AO1
KCIC 100515Z AUTO 13015KT 10SM CLR 27/08 A2991 RMK AO1
KCIC 100147Z 15016KT 10SM FEW120 33/06 A2985
KCIC 100047Z 15017KT 10SM FEW120 33/05 A2986
KCIC 092347Z 13018KT 10SM FEW120 34/02 A2986
KCIC 092247Z 12016KT 10SM FEW120 34/04 A2987
KCIC 092147Z 13014G19KT 10SM SCT120 32/08 A2989
KCIC 091947Z 13013G20KT 10SM SCT120 29/13 A2993
KCIC 091847Z 17012KT 10SM SCT120 27/12 A2993
KCIC 091747Z 13005KT 10SM SCT120 25/12 A2994 RMK FU NW
KCIC 091647Z 11005KT 10SM SCT120 24/12 A2994
KCIC 091553Z 14006KT 10SM BKN120 22/12 A2995
KCIC 091515Z AUTO 15008KT 10SM CLR 22/12 A2995 RMK AO1
KCIC 091455Z AUTO 16007KT 10SM CLR 21/12 A2994 RMK AO1
KCIC 091447Z 14008KT 10SM BKN2120 20/12 A2994
KCIC 091435Z AUTO 14006KT 10SM CLR 20/12 A2994 RMK AO1
KCIC 091415Z AUTO 16007KT 10SM CLR 20/12 A2993 RMK AO1
KCIC 091355Z AUTO 13006KT 10SM CLR 20/12 A2993 RMK AO1
KCIC 091347Z 12008KT 40SM BKN120 20/12 A2993
KCIC 091335Z AUTO 15005KT 10SM CLR 20/11 A2992 RMK AO1
KCIC 091315Z AUTO 15007KT 10SM CLR 20/11 A2992 RMK AO1
KCIC 091255Z AUTO 13006KT 10SM CLR 21/11 A2991 RMK AO1
KCIC 091235Z AUTO 15006KT 10SM CLR 22/11 A2991 RMK AO1
KCIC 091215Z AUTO 14007KT 10SM CLR 22/11 A2991 RMK AO1
KCIC 091155Z AUTO 12008KT 10SM CLR 22/11 A2990 RMK AO1
KCIC 091135Z AUTO 13006KT 10SM CLR 22/11 A2990 RMK AO1
KCIC 091115Z AUTO 16004KT 10SM CLR 23/12 A2990 RMK AO1
KCIC 091055Z AUTO 16007KT 10SM CLR 23/12 A2989 RMK AO1
KCIC 091035Z AUTO 17009KT 10SM CLR 23/11 A2989 RMK AO1
KCIC 091015Z AUTO 16009KT 10SM CLR 24/11 A2989 RMK AO1
KCIC 090955Z AUTO 15008KT 10SM CLR 24/11 A2988 RMK AO1
KCIC 090935Z AUTO 15008KT 10SM CLR 24/11 A2988 RMK AO1
KCIC 090915Z AUTO 14009KT 10SM CLR 24/11 A2988 RMK AO1
KCIC 090855Z AUTO 14009KT 10SM CLR 24/10 A2988 RMK AO1
KCIC 090835Z AUTO 14007KT 10SM CLR 25/10 A2988 RMK AO1
KCIC 090815Z AUTO 14008KT 10SM CLR 25/09 A2988 RMK AO1
KCIC 090755Z AUTO 16008KT 10SM CLR 26/09 A2988 RMK AO1
KCIC 090735Z AUTO 16005KT 10SM CLR 27/07 A2988 RMK AO1
KCIC 090715Z AUTO 14008KT 10SM CLR 28/06 A2988 RMK AO1
KCIC 090655Z AUTO 12010KT 10SM CLR 28/07 A2988 RMK AO1
KCIC 090635Z AUTO 13009KT 10SM CLR 29/08 A2988 RMK AO1
KCIC 090615Z AUTO 14009KT 10SM CLR 29/08 A2988 RMK AO1
KCIC 090555Z AUTO 14010KT 10SM CLR 29/07 A2988 RMK AO1
KCIC 090515Z AUTO 15007KT 10SM CLR 30/07 A2988 RMK AO1